Time;durP1;ratioP1;P1;durP2;ratioP2;P2;SDS_P1;SDS_P2;PMS_P1;PMS_P2;Temp;Humidity;BMP_temperature;BMP_pressure;BME280_temperature;BME280_humidity;BME280_pressure;Samples;Min_cycle;Max_cycle;Signal;HPM_P1;HPM_P2
2023/10/07 00:02:52;;;;;;;9.00;4.63;;;12.40;99.90;;;;;;5015187;28;20203;-80
2023/10/07 00:05:25;;;;;;;9.00;4.40;;;12.30;99.90;;;;;;5015409;28;20175;-80
2023/10/07 00:07:52;;;;;;;7.83;4.70;;;12.30;99.90;;;;;;5015286;28;20322;-80
2023/10/07 00:10:25;;;;;;;7.63;4.50;;;12.30;99.90;;;;;;5015021;28;20249;-80
2023/10/07 00:12:51;;;;;;;6.87;4.20;;;12.30;99.90;;;;;;5014877;28;20163;-81
2023/10/07 00:15:21;;;;;;;7.27;4.13;;;12.30;99.90;;;;;;5013468;28;20167;-80
2023/10/07 00:17:47;;;;;;;7.40;4.70;;;12.40;99.90;;;;;;5013342;28;20175;-80
2023/10/07 00:20:13;;;;;;;8.50;4.57;;;12.40;99.90;;;;;;5013584;28;20199;-80
2023/10/07 00:22:41;;;;;;;7.90;4.63;;;12.30;99.90;;;;;;5014757;28;20178;-80
2023/10/07 00:25:07;;;;;;;8.30;4.23;;;12.30;99.90;;;;;;5014620;28;20179;-80
2023/10/07 00:27:38;;;;;;;8.13;4.93;;;12.30;99.90;;;;;;5014741;28;20195;-80
2023/10/07 00:30:16;;;;;;;9.33;4.80;;;12.30;99.90;;;;;;5015072;28;20187;-80
2023/10/07 00:32:45;;;;;;;8.83;4.73;;;12.30;99.90;;;;;;5013251;28;20171;-80
2023/10/07 00:35:11;;;;;;;7.10;4.70;;;12.20;99.90;;;;;;5014390;28;20179;-80
2023/10/07 00:37:44;;;;;;;6.73;4.17;;;12.20;99.90;;;;;;5015335;28;20193;-80
2023/10/07 00:40:14;;;;;;;9.10;4.40;;;12.20;99.90;;;;;;5014510;28;20195;-80
2023/10/07 00:42:47;;;;;;;9.00;4.40;;;12.20;99.90;;;;;;5013237;28;20655;-80
2023/10/07 00:45:16;;;;;;;8.90;3.97;;;12.20;99.90;;;;;;5013416;28;20689;-80
2023/10/07 00:47:42;;;;;;;7.83;4.57;;;12.10;99.90;;;;;;5012929;28;20195;-80
2023/10/07 00:52:48;;;;;;;8.30;4.67;;;12.10;99.90;;;;;;5083268;22;20249;-79
2023/10/07 00:55:18;;;;;;;9.03;4.90;;;12.10;99.90;;;;;;5033524;28;20177;-79
2023/10/07 00:57:48;;;;;;;7.80;4.50;;;12.00;99.90;;;;;;5015594;28;20186;-79
2023/10/07 01:03:03;;;;;;;9.27;5.10;;;12.00;99.90;;;;;;5032698;28;20178;-79
2023/10/07 01:05:33;;;;;;;8.00;4.90;;;12.00;99.90;;;;;;5015287;28;20178;-79
2023/10/07 01:07:59;;;;;;;8.80;4.77;;;12.00;99.90;;;;;;5033316;28;20218;-79
2023/10/07 01:10:25;;;;;;;8.43;4.30;;;12.00;99.90;;;;;;5015322;28;20170;-79
2023/10/07 01:12:59;;;;;;;7.87;4.93;;;12.00;99.90;;;;;;5019011;28;20624;-79
2023/10/07 01:15:26;;;;;;;7.20;4.80;;;11.90;99.90;;;;;;5032643;28;20207;-80
2023/10/07 01:18:13;;;;;;;8.00;4.70;;;11.90;99.90;;;;;;5032951;28;20178;-79
2023/10/07 01:21:00;;;;;;;6.37;3.93;;;11.90;99.90;;;;;;5032569;28;20566;-80
2023/10/07 01:23:33;;;;;;;9.13;4.20;;;11.90;99.90;;;;;;5032376;28;20189;-79
2023/10/07 01:25:59;;;;;;;7.97;4.67;;;11.90;99.90;;;;;;5032793;28;20169;-81
2023/10/07 01:28:26;;;;;;;7.67;4.50;;;11.90;99.90;;;;;;5032246;28;20198;-79
2023/10/07 01:31:08;;;;;;;7.70;4.43;;;11.90;99.90;;;;;;5014498;28;20202;-79
2023/10/07 01:33:47;;;;;;;7.33;4.40;;;11.80;99.90;;;;;;5032855;28;20178;-79
2023/10/07 01:36:19;;;;;;;7.17;4.77;;;11.80;99.90;;;;;;5032747;28;20549;-79
2023/10/07 01:38:48;;;;;;;7.37;5.10;;;11.80;99.90;;;;;;5032976;28;20167;-79
2023/10/07 01:41:39;;;;;;;9.23;4.90;;;11.80;99.90;;;;;;5032559;28;20212;-79
2023/10/07 01:44:05;;;;;;;7.33;4.20;;;11.80;99.90;;;;;;5032782;28;20178;-79
2023/10/07 01:46:32;;;;;;;9.60;5.10;;;11.80;99.90;;;;;;5014785;28;20177;-79
2023/10/07 01:49:04;;;;;;;8.37;4.73;;;11.80;99.90;;;;;;5032588;28;20178;-79
2023/10/07 01:51:30;;;;;;;10.30;5.30;;;11.80;99.90;;;;;;5032280;28;20205;-79
2023/10/07 01:54:03;;;;;;;8.00;4.83;;;11.70;99.90;;;;;;5014988;28;20693;-79
2023/10/07 01:56:30;;;;;;;9.17;4.50;;;11.60;99.90;;;;;;5014964;28;20257;-79
2023/10/07 02:01:42;;;;;;;8.37;4.90;;;11.70;99.90;;;;;;5032137;28;20312;-79
2023/10/07 02:04:17;;;;;;;8.57;4.53;;;11.60;99.90;;;;;;5018689;28;20170;-79
2023/10/07 02:06:51;;;;;;;10.27;4.60;;;11.60;99.90;;;;;;5022754;28;20618;-79
2023/10/07 02:09:23;;;;;;;7.73;4.90;;;11.50;99.90;;;;;;5014686;28;20178;-79
2023/10/07 02:11:57;;;;;;;9.43;4.83;;;11.40;99.90;;;;;;5031158;28;20618;-79
2023/10/07 02:14:24;;;;;;;8.33;5.33;;;11.50;99.90;;;;;;5032405;28;20169;-79
2023/10/07 02:16:56;;;;;;;6.73;4.73;;;11.50;99.90;;;;;;5015087;28;20189;-79
2023/10/07 02:19:34;;;;;;;8.87;5.10;;;11.50;99.90;;;;;;5032369;28;20185;-79
2023/10/07 02:22:07;;;;;;;8.10;5.03;;;11.50;99.90;;;;;;5032014;28;20193;-79
2023/10/07 02:24:35;;;;;;;11.17;4.90;;;11.50;99.90;;;;;;5032518;28;20178;-79
2023/10/07 02:27:06;;;;;;;8.63;4.93;;;11.40;99.90;;;;;;5014419;28;20274;-79
2023/10/07 02:29:34;;;;;;;7.90;4.77;;;11.40;99.90;;;;;;5032338;28;20673;-79
2023/10/07 02:32:22;;;;;;;9.93;5.17;;;11.40;99.90;;;;;;5014242;28;20186;-79
2023/10/07 02:34:52;;;;;;;9.97;4.97;;;11.30;99.90;;;;;;5031695;28;20213;-79
2023/10/07 02:37:38;;;;;;;8.73;5.07;;;11.40;99.90;;;;;;5032283;28;20224;-77
2023/10/07 02:40:35;;;;;;;11.53;5.20;;;11.30;99.90;;;;;;5034167;28;20681;-79
2023/10/07 02:43:10;;;;;;;9.13;4.93;;;11.30;99.90;;;;;;5035728;28;20541;-79
2023/10/07 02:45:39;;;;;;;9.00;4.60;;;11.20;99.90;;;;;;5018284;28;20176;-78
2023/10/07 02:48:10;;;;;;;9.07;4.87;;;11.20;99.90;;;;;;5035921;28;20292;-81
2023/10/07 02:50:40;;;;;;;7.87;4.43;;;11.30;99.90;;;;;;5017704;28;20191;-79
2023/10/07 02:53:16;;;;;;;8.57;4.77;;;11.20;99.90;;;;;;5018056;28;20300;-79
2023/10/07 02:58:13;;;;;;;8.33;4.60;;;11.20;99.90;;;;;;5035505;28;20236;-79
2023/10/07 03:00:38;;;;;;;7.17;4.70;;;11.20;99.90;;;;;;5035295;28;20194;-79
2023/10/07 03:05:49;;;;;;;9.17;4.63;;;11.20;99.90;;;;;;5034998;28;20182;-79
2023/10/07 03:08:21;;;;;;;8.23;4.60;;;11.20;99.90;;;;;;5017608;28;20212;-79
2023/10/07 03:11:03;;;;;;;8.07;4.50;;;11.20;99.90;;;;;;5035265;28;20197;-79
2023/10/07 03:13:29;;;;;;;7.03;4.77;;;11.20;99.90;;;;;;5017637;28;20197;-79
2023/10/07 03:16:16;;;;;;;11.07;4.73;;;11.20;99.90;;;;;;5017331;28;20185;-79
2023/10/07 03:18:45;;;;;;;6.87;4.47;;;11.20;99.90;;;;;;5035544;28;20193;-79
2023/10/07 03:21:11;;;;;;;6.43;4.67;;;11.20;99.90;;;;;;5017277;28;20202;-79
2023/10/07 03:23:47;;;;;;;8.43;4.67;;;11.30;99.90;;;;;;5017345;28;20180;-79
2023/10/07 03:26:20;;;;;;;7.80;4.53;;;11.30;99.90;;;;;;5034915;28;20178;-79
2023/10/07 03:28:52;;;;;;;6.97;4.67;;;11.30;99.90;;;;;;5034662;28;20211;-79
2023/10/07 03:31:20;;;;;;;8.57;5.20;;;11.30;99.90;;;;;;5034612;28;20194;-79
2023/10/07 03:33:52;;;;;;;10.40;5.23;;;11.30;99.90;;;;;;5035100;28;20170;-79
2023/10/07 03:38:57;;;;;;;7.27;4.80;;;11.30;99.90;;;;;;5034905;28;20657;-79
2023/10/07 03:41:23;;;;;;;11.20;5.10;;;11.30;99.90;;;;;;5034054;28;20669;-79
2023/10/07 03:43:50;;;;;;;10.30;5.27;;;11.40;99.90;;;;;;5016913;28;20240;-80
2023/10/07 03:46:17;;;;;;;9.80;5.10;;;11.40;99.90;;;;;;5034849;28;20193;-79
2023/10/07 03:48:53;;;;;;;9.43;5.47;;;11.40;99.90;;;;;;5034559;28;20206;-79
2023/10/07 03:51:22;;;;;;;9.83;5.23;;;11.30;99.90;;;;;;5015918;28;20217;-79
2023/10/07 03:53:51;;;;;;;8.13;4.70;;;11.40;99.90;;;;;;5034730;28;20209;-79
2023/10/07 03:56:20;;;;;;;12.27;5.37;;;11.40;99.90;;;;;;5034369;28;20170;-79
2023/10/07 03:58:46;;;;;;;9.70;5.03;;;11.40;99.90;;;;;;5034485;28;20221;-79
2023/10/07 04:01:16;;;;;;;11.87;4.80;;;11.30;99.90;;;;;;5033562;28;20221;-79
2023/10/07 04:03:52;;;;;;;7.87;4.50;;;11.40;99.90;;;;;;5016819;28;20185;-79
2023/10/07 04:06:20;;;;;;;8.57;4.60;;;11.40;99.90;;;;;;5034590;28;20166;-79
2023/10/07 04:08:52;;;;;;;9.17;5.13;;;11.40;99.90;;;;;;5016885;28;20233;-80
2023/10/07 04:11:19;;;;;;;7.87;4.87;;;11.40;99.90;;;;;;5033591;28;20190;-79
2023/10/07 04:13:45;;;;;;;10.77;5.23;;;11.30;99.90;;;;;;5034362;28;20519;-79
2023/10/07 04:16:24;;;;;;;8.83;4.77;;;11.30;99.90;;;;;;5016347;28;20182;-79
2023/10/07 04:18:58;;;;;;;9.83;5.20;;;11.30;99.90;;;;;;5033988;28;20185;-80
2023/10/07 04:21:24;;;;;;;9.90;4.93;;;11.30;99.90;;;;;;5033709;28;20257;-80
2023/10/07 04:23:50;;;;;;;8.50;4.83;;;11.30;99.90;;;;;;5016206;28;20182;-79
2023/10/07 04:26:21;;;;;;;10.07;5.23;;;11.30;99.90;;;;;;5033689;28;20201;-80
2023/10/07 04:28:53;;;;;;;6.83;4.60;;;11.30;99.90;;;;;;5033868;28;20217;-79
2023/10/07 04:31:29;;;;;;;9.10;5.17;;;11.30;99.90;;;;;;5015134;28;20346;-79
2023/10/07 04:33:55;;;;;;;10.03;5.00;;;11.20;99.90;;;;;;5034124;28;20229;-79
2023/10/07 04:36:33;;;;;;;9.17;4.50;;;11.30;99.90;;;;;;5033933;28;20202;-79
2023/10/07 04:39:08;;;;;;;8.77;4.80;;;11.30;99.90;;;;;;5033645;28;20170;-79
2023/10/07 04:41:36;;;;;;;10.87;4.80;;;11.30;99.90;;;;;;5032862;28;20194;-79
2023/10/07 04:45:00;;;;;;;8.47;4.90;;;11.30;99.90;;;;;;5015766;28;20682;-79
2023/10/07 04:46:57;;;;;;;10.03;5.17;;;11.30;99.90;;;;;;5032708;28;20182;-79
2023/10/07 04:49:28;;;;;;;8.67;4.90;;;11.30;99.90;;;;;;5033649;28;20190;-79
2023/10/07 04:52:04;;;;;;;8.30;4.53;;;11.30;99.90;;;;;;5032744;28;20276;-79
2023/10/07 04:54:35;;;;;;;9.17;5.33;;;11.20;99.90;;;;;;5033338;28;20168;-79
2023/10/07 04:57:01;;;;;;;9.13;5.03;;;11.30;99.90;;;;;;5033336;28;20174;-79
2023/10/07 04:59:28;;;;;;;8.53;4.80;;;11.30;99.90;;;;;;5015558;28;20171;-79
2023/10/07 05:02:01;;;;;;;7.80;4.90;;;11.40;99.90;;;;;;5032173;28;20225;-79
2023/10/07 05:04:28;;;;;;;10.40;5.30;;;11.40;99.90;;;;;;5033419;28;20166;-81
2023/10/07 05:06:54;;;;;;;9.47;5.20;;;11.40;99.90;;;;;;5033032;28;20255;-79
2023/10/07 05:09:21;;;;;;;10.57;5.20;;;11.30;99.90;;;;;;5015612;28;20177;-79
2023/10/07 05:11:48;;;;;;;9.87;4.97;;;11.40;99.90;;;;;;5032615;28;20197;-80
2023/10/07 05:14:18;;;;;;;9.50;5.13;;;11.40;99.90;;;;;;5033208;28;20196;-79
2023/10/07 05:16:46;;;;;;;8.83;5.20;;;11.50;99.90;;;;;;5015600;28;20174;-79
2023/10/07 05:19:27;;;;;;;9.00;5.00;;;11.50;99.90;;;;;;5015172;28;20174;-79
2023/10/07 05:22:00;;;;;;;11.10;5.37;;;11.60;99.90;;;;;;5015434;28;20741;-82
2023/10/07 05:24:29;;;;;;;9.23;5.33;;;11.60;99.90;;;;;;5015225;28;20171;-80
2023/10/07 05:27:02;;;;;;;8.93;4.77;;;11.50;99.90;;;;;;5015197;28;20202;-80
2023/10/07 05:29:29;;;;;;;8.70;5.20;;;11.50;99.90;;;;;;5032594;28;20170;-81
2023/10/07 05:31:56;;;;;;;8.27;4.97;;;11.50;99.90;;;;;;5032444;28;20615;-80
2023/10/07 05:34:22;;;;;;;8.13;5.10;;;11.50;99.90;;;;;;5015322;28;20654;-83
2023/10/07 05:36:47;;;;;;;11.47;5.73;;;11.60;99.90;;;;;;5014998;28;20651;-80
2023/10/07 05:39:15;;;;;;;9.17;5.27;;;11.60;99.90;;;;;;5033002;28;20190;-79
2023/10/07 05:41:41;;;;;;;9.87;5.10;;;11.60;99.90;;;;;;5014476;28;20208;-80
2023/10/07 05:44:07;;;;;;;10.13;5.00;;;11.50;99.90;;;;;;5014922;28;20174;-80
2023/10/07 05:46:33;;;;;;;9.07;5.50;;;11.50;99.90;;;;;;5015386;28;20179;-79
2023/10/07 05:48:59;;;;;;;8.80;5.00;;;11.50;99.90;;;;;;5015150;28;20220;-81
2023/10/07 05:51:25;;;;;;;8.90;5.20;;;11.50;99.90;;;;;;5015332;28;20202;-83
2023/10/07 05:53:51;;;;;;;8.93;5.13;;;11.50;99.90;;;;;;5034536;28;20172;-81
2023/10/07 05:56:17;;;;;;;9.90;5.30;;;11.50;99.90;;;;;;5017125;28;20171;-81
2023/10/07 05:58:46;;;;;;;9.77;4.90;;;11.50;99.90;;;;;;5033965;28;20198;-81
2023/10/07 06:01:14;;;;;;;8.53;4.70;;;11.50;99.90;;;;;;5014579;28;20571;-81
2023/10/07 06:03:40;;;;;;;9.93;5.37;;;11.50;99.90;;;;;;5032215;28;20187;-81
2023/10/07 06:06:06;;;;;;;8.43;5.27;;;11.50;99.90;;;;;;5032597;28;20185;-79
2023/10/07 06:08:32;;;;;;;8.43;4.93;;;11.50;99.90;;;;;;5032438;28;20194;-79
2023/10/07 06:10:59;;;;;;;8.33;5.17;;;11.50;99.90;;;;;;5014074;28;20201;-80
2023/10/07 06:13:27;;;;;;;9.57;5.27;;;11.60;99.90;;;;;;5015314;28;20206;-82
2023/10/07 06:15:55;;;;;;;8.93;5.23;;;11.60;99.90;;;;;;5035877;28;20170;-79
2023/10/07 06:18:25;;;;;;;11.20;5.43;;;11.60;99.90;;;;;;5027021;28;20186;-78
2023/10/07 06:20:52;;;;;;;14.17;5.47;;;11.60;99.90;;;;;;5031573;28;20277;-79
2023/10/07 06:23:25;;;;;;;11.50;5.33;;;11.70;99.90;;;;;;5007357;28;20187;-78
2023/10/07 06:25:51;;;;;;;10.63;5.40;;;11.60;99.90;;;;;;5010984;28;20197;-79
2023/10/07 06:28:29;;;;;;;9.93;5.40;;;11.70;99.90;;;;;;5028485;28;20206;-78
2023/10/07 06:34:03;;;;;;;8.57;5.03;;;11.70;99.90;;;;;;5018901;28;20197;-79
2023/10/07 06:36:31;;;;;;;8.63;4.90;;;11.70;99.90;;;;;;5026127;28;20572;-79
2023/10/07 06:39:07;;;;;;;8.27;4.67;;;11.70;99.90;;;;;;5024716;28;20274;-79
2023/10/07 06:41:34;;;;;;;9.10;4.93;;;11.80;99.90;;;;;;5026250;28;20206;-79
2023/10/07 06:44:02;;;;;;;13.67;5.97;;;11.80;99.90;;;;;;5010576;28;20262;-80
2023/10/07 06:46:41;;;;;;;7.37;4.27;;;11.80;99.90;;;;;;5026676;28;20190;-80
2023/10/07 06:49:18;;;;;;;9.03;5.20;;;11.80;99.90;;;;;;5030744;28;20308;-79
2023/10/07 06:51:54;;;;;;;11.07;5.00;;;11.80;99.90;;;;;;5070541;23;20719;-80
2023/10/07 06:54:35;;;;;;;8.67;4.83;;;11.80;99.90;;;;;;5015446;28;20215;-79
2023/10/07 06:57:09;;;;;;;10.60;5.20;;;11.90;99.90;;;;;;5016135;28;20175;-80
2023/10/07 06:59:34;;;;;;;8.40;4.83;;;11.90;99.90;;;;;;5014762;28;20199;-79
2023/10/07 07:02:06;;;;;;;8.70;4.83;;;11.90;99.90;;;;;;5016085;28;20211;-79
2023/10/07 07:04:31;;;;;;;7.90;5.00;;;11.90;99.90;;;;;;5015029;28;20172;-79
2023/10/07 07:07:16;;;;;;;11.07;5.60;;;12.00;99.90;;;;;;5014929;28;20225;-79
2023/10/07 07:09:42;;;;;;;7.50;5.00;;;12.00;99.90;;;;;;5014987;28;20564;-80
2023/10/07 07:12:09;;;;;;;9.87;5.30;;;12.00;99.90;;;;;;5015917;28;20191;-80
2023/10/07 07:14:42;;;;;;;8.50;5.17;;;12.00;99.90;;;;;;5014871;28;20659;-79
2023/10/07 07:22:39;;;;;;;9.70;5.17;;;12.10;99.90;;;;;;5015255;28;20190;-79
2023/10/07 07:25:11;;;;;;;8.53;4.77;;;12.10;99.90;;;;;;5015576;28;20576;-80
2023/10/07 07:27:37;;;;;;;8.50;5.00;;;12.20;99.90;;;;;;5014715;28;20202;-79
2023/10/07 07:30:07;;;;;;;9.10;4.83;;;12.30;99.90;;;;;;5016349;28;20171;-80
2023/10/07 07:32:35;;;;;;;8.20;4.80;;;12.30;99.90;;;;;;5014466;28;20318;-79
2023/10/07 07:35:04;;;;;;;12.77;5.10;;;12.40;99.90;;;;;;5016329;28;20262;-79
2023/10/07 07:37:32;;;;;;;10.93;5.53;;;12.40;99.90;;;;;;5016340;28;20258;-80
2023/10/07 07:40:35;;;;;;;8.33;4.77;;;12.40;99.90;;;;;;5016029;28;20179;-79
2023/10/07 07:43:00;;;;;;;6.77;4.60;;;12.40;99.90;;;;;;5014248;28;20197;-79
2023/10/07 07:45:26;;;;;;;7.90;4.70;;;12.30;99.90;;;;;;5015263;28;20171;-79
2023/10/07 07:47:56;;;;;;;11.03;5.40;;;12.30;99.90;;;;;;5014495;28;20199;-79
2023/10/07 07:50:22;;;;;;;7.57;4.63;;;12.30;99.90;;;;;;5016116;28;20240;-80
2023/10/07 07:52:50;;;;;;;8.27;4.87;;;12.30;99.90;;;;;;5014130;28;20695;-79
2023/10/07 07:55:16;;;;;;;7.53;5.13;;;12.30;99.90;;;;;;5015781;28;20648;-79
2023/10/07 07:57:45;;;;;;;9.07;5.20;;;12.40;99.90;;;;;;5014407;28;20175;-79
2023/10/07 08:00:20;;;;;;;9.40;4.90;;;12.40;99.90;;;;;;5014141;28;20233;-80
2023/10/07 08:02:48;;;;;;;9.80;5.40;;;12.40;99.90;;;;;;5015549;28;20222;-79
2023/10/07 08:05:18;;;;;;;9.53;4.90;;;12.40;99.90;;;;;;5015785;28;20174;-79
2023/10/07 08:07:45;;;;;;;7.03;4.50;;;12.40;99.90;;;;;;5013893;28;20206;-79
2023/10/07 08:10:11;;;;;;;10.47;5.07;;;12.50;99.90;;;;;;5015482;28;20174;-80
2023/10/07 08:12:37;;;;;;;8.60;4.73;;;12.50;99.90;;;;;;5014848;28;20290;-79
2023/10/07 08:17:40;;;;;;;7.27;4.67;;;12.60;99.90;;;;;;5015405;28;20217;-79
2023/10/07 08:20:12;;;;;;;8.67;5.17;;;12.60;99.90;;;;;;5013943;28;20194;-80
2023/10/07 08:22:45;;;;;;;9.90;4.97;;;12.70;99.90;;;;;;5015059;28;20195;-80
2023/10/07 08:25:22;;;;;;;9.60;5.00;;;12.70;99.90;;;;;;5015612;28;20287;-79
2023/10/07 08:27:52;;;;;;;7.70;4.93;;;12.70;99.90;;;;;;5013625;28;20203;-79
2023/10/07 08:30:37;;;;;;;8.53;4.90;;;12.70;99.90;;;;;;5015025;28;20175;-79
2023/10/07 08:33:12;;;;;;;9.20;4.73;;;12.80;99.90;;;;;;5014352;28;20695;-79
2023/10/07 08:35:43;;;;;;;8.13;5.07;;;12.70;99.90;;;;;;5014989;28;20182;-79
2023/10/07 08:38:37;;;;;;;8.57;5.00;;;12.70;99.90;;;;;;5013903;28;20224;-80
2023/10/07 08:41:04;;;;;;;10.37;4.93;;;12.70;99.90;;;;;;5012945;28;20198;-79
2023/10/07 08:43:43;;;;;;;11.23;5.00;;;12.60;99.90;;;;;;5014432;28;20183;-79
2023/10/07 08:46:11;;;;;;;9.00;4.97;;;12.60;99.90;;;;;;5014646;28;20182;-79
2023/10/07 08:48:44;;;;;;;7.53;4.80;;;12.60;99.90;;;;;;5014138;28;20199;-80
2023/10/07 08:51:24;;;;;;;7.20;4.67;;;12.60;99.90;;;;;;5012605;28;20206;-80
2023/10/07 08:53:56;;;;;;;9.20;5.40;;;12.60;99.90;;;;;;5012904;28;20184;-79
2023/10/07 08:56:27;;;;;;;9.57;5.00;;;12.60;99.90;;;;;;5014877;28;20180;-80
2023/10/07 08:58:53;;;;;;;8.30;5.30;;;12.60;99.90;;;;;;5014397;28;20546;-80
2023/10/07 09:01:19;;;;;;;9.47;5.20;;;12.60;99.90;;;;;;5012040;28;20191;-80
2023/10/07 09:03:53;;;;;;;8.80;5.40;;;12.60;99.90;;;;;;5014444;28;20178;-78
2023/10/07 09:06:20;;;;;;;10.17;5.03;;;12.60;99.90;;;;;;5012804;28;20183;-79
2023/10/07 09:08:46;;;;;;;9.20;5.63;;;12.60;99.90;;;;;;5013191;28;20229;-79
2023/10/07 09:11:19;;;;;;;7.80;4.90;;;12.60;99.90;;;;;;5013443;28;20670;-79
2023/10/07 09:13:49;;;;;;;8.90;5.00;;;12.70;99.90;;;;;;5012703;28;20167;-79
2023/10/07 09:16:15;;;;;;;8.53;5.00;;;12.70;99.90;;;;;;5014250;28;20179;-79
2023/10/07 09:18:41;;;;;;;8.17;4.83;;;12.80;99.90;;;;;;5012813;28;20174;-80
2023/10/07 09:21:18;;;;;;;10.50;5.37;;;12.80;99.90;;;;;;5014119;28;20191;-79
2023/10/07 09:23:58;;;;;;;10.03;5.23;;;12.80;99.90;;;;;;5013074;28;20655;-80
2023/10/07 09:26:33;;;;;;;10.47;5.17;;;12.80;99.90;;;;;;5012689;28;20171;-79
2023/10/07 09:29:21;;;;;;;7.57;5.13;;;12.80;99.90;;;;;;5014353;28;20209;-80
2023/10/07 09:32:04;;;;;;;9.80;5.33;;;12.90;99.90;;;;;;5013900;28;20199;-80
2023/10/07 09:34:42;;;;;;;8.97;5.60;;;12.90;99.90;;;;;;5012729;28;20171;-79
2023/10/07 09:37:21;;;;;;;8.70;5.17;;;12.90;99.90;;;;;;5013742;28;20178;-79
2023/10/07 09:40:19;;;;;;;9.83;5.43;;;12.90;99.90;;;;;;5012469;28;20563;-80
2023/10/07 09:42:58;;;;;;;12.93;5.83;;;12.90;99.90;;;;;;5013723;28;20299;-79
2023/10/07 09:45:32;;;;;;;20.10;6.77;;;12.90;99.90;;;;;;5012692;28;20175;-80
2023/10/07 09:48:00;;;;;;;51.77;9.47;;;12.90;99.90;;;;;;5013050;28;20195;-79
2023/10/07 09:50:33;;;;;;;44.13;9.47;;;12.90;99.90;;;;;;5018011;28;20191;-80
2023/10/07 09:53:43;;;;;;;10.97;5.10;;;13.00;99.90;;;;;;5017676;28;20211;-79
2023/10/07 09:56:33;;;;;;;9.70;5.47;;;13.10;99.90;;;;;;4997241;28;20207;-80
2023/10/07 09:59:25;;;;;;;7.27;4.90;;;13.10;99.90;;;;;;5016444;28;20586;-80
2023/10/07 10:02:07;;;;;;;8.60;5.33;;;13.20;99.90;;;;;;5015987;28;20287;-79
2023/10/07 10:05:00;;;;;;;9.93;5.47;;;13.30;99.90;;;;;;5016718;28;20179;-79
2023/10/07 10:07:48;;;;;;;8.47;4.90;;;13.30;99.90;;;;;;5016618;28;20222;-79
2023/10/07 10:10:18;;;;;;;11.00;5.37;;;13.40;99.90;;;;;;5016926;28;20171;-80
2023/10/07 10:17:48;;;;;;;8.77;5.50;;;13.90;99.90;;;;;;5017593;28;20174;-80
2023/10/07 10:20:20;;;;;;;9.27;5.23;;;14.10;99.90;;;;;;5015789;28;20179;-80
2023/10/07 10:22:59;;;;;;;7.07;5.23;;;14.20;99.90;;;;;;5017013;28;20560;-79
2023/10/07 10:25:37;;;;;;;11.13;4.90;;;14.50;99.90;;;;;;5015669;28;20175;-79
2023/10/07 10:28:06;;;;;;;8.20;4.83;;;14.70;99.90;;;;;;5015880;28;20234;-80
2023/10/07 10:30:32;;;;;;;8.10;4.97;;;15.00;99.90;;;;;;5017014;28;20163;-79
2023/10/07 10:33:08;;;;;;;7.20;5.07;;;15.20;99.90;;;;;;5015455;28;20228;-80
2023/10/07 10:35:40;;;;;;;9.33;5.73;;;15.30;99.90;;;;;;5015742;28;20709;-80
2023/10/07 10:38:09;;;;;;;7.60;5.00;;;15.20;99.90;;;;;;5016524;28;20175;-79
2023/10/07 10:40:36;;;;;;;8.27;4.80;;;15.10;99.90;;;;;;5015847;28;20190;-79
2023/10/07 10:43:02;;;;;;;7.80;5.13;;;14.90;99.90;;;;;;5016642;28;20674;-79
2023/10/07 10:45:30;;;;;;;11.27;5.20;;;14.90;99.90;;;;;;5017307;28;20210;-79
2023/10/07 10:48:00;;;;;;;9.77;5.13;;;14.90;99.90;;;;;;5016602;28;20205;-78
2023/10/07 10:50:29;;;;;;;8.40;5.27;;;14.90;99.90;;;;;;5016509;28;20605;-78
2023/10/07 10:53:01;;;;;;;7.40;4.90;;;14.90;99.90;;;;;;5015000;28;20206;-80
2023/10/07 10:55:38;;;;;;;8.57;5.20;;;15.00;99.90;;;;;;5017512;28;20171;-79
2023/10/07 10:58:16;;;;;;;10.47;5.83;;;15.40;99.90;;;;;;5017343;28;20225;-79
2023/10/07 11:00:51;;;;;;;7.67;5.20;;;15.50;99.90;;;;;;5016229;28;20213;-79
2023/10/07 11:03:25;;;;;;;7.10;4.60;;;15.70;99.90;;;;;;5015872;28;20739;-79
2023/10/07 11:05:56;;;;;;;8.27;4.73;;;15.70;99.90;;;;;;5015755;28;20179;-79
2023/10/07 11:08:22;;;;;;;8.20;4.80;;;15.70;99.90;;;;;;5015401;28;20631;-79
2023/10/07 11:10:58;;;;;;;9.13;5.13;;;15.70;99.90;;;;;;5016472;28;20179;-79
2023/10/07 11:13:24;;;;;;;10.03;5.03;;;15.90;99.90;;;;;;5016674;28;20223;-79
2023/10/07 11:16:10;;;;;;;8.67;5.37;;;15.90;99.90;;;;;;5017214;28;20239;-79
2023/10/07 11:18:41;;;;;;;10.13;4.83;;;15.90;99.90;;;;;;5016882;28;20197;-80
2023/10/07 11:21:11;;;;;;;7.47;4.67;;;15.80;99.90;;;;;;5016006;28;20245;-79
2023/10/07 11:23:52;;;;;;;8.67;5.20;;;15.80;99.90;;;;;;5016821;28;20679;-79
2023/10/07 11:26:19;;;;;;;7.17;4.43;;;15.80;99.90;;;;;;5016091;28;20178;-79
2023/10/07 11:28:48;;;;;;;8.23;5.07;;;15.90;99.90;;;;;;5015403;28;20679;-77
2023/10/07 11:31:19;;;;;;;6.43;4.20;;;16.10;99.90;;;;;;5014834;28;20191;-80
2023/10/07 11:33:51;;;;;;;7.80;4.90;;;16.30;99.90;;;;;;5017015;28;20175;-79
2023/10/07 11:36:17;;;;;;;8.00;4.80;;;16.20;90.80;;;;;;5015432;28;20179;-79
2023/10/07 11:38:43;;;;;;;7.80;4.50;;;16.10;99.90;;;;;;5016708;28;20175;-79
2023/10/07 11:41:10;;;;;;;9.50;4.60;;;16.00;99.90;;;;;;5014842;28;20277;-79
2023/10/07 11:43:43;;;;;;;6.07;4.50;;;16.00;99.90;;;;;;5015691;28;20705;-80
2023/10/07 11:46:11;;;;;;;7.83;4.80;;;16.00;99.90;;;;;;5015131;28;20713;-79
2023/10/07 11:48:40;;;;;;;7.53;4.63;;;15.90;99.90;;;;;;5016193;28;20203;-79
2023/10/07 11:51:06;;;;;;;7.60;4.57;;;15.80;99.90;;;;;;5014739;28;20214;-79
2023/10/07 11:53:32;;;;;;;9.20;4.57;;;15.70;99.90;;;;;;5015860;28;20168;-80
2023/10/07 11:55:58;;;;;;;8.93;5.20;;;15.60;99.90;;;;;;5016665;28;20182;-79
2023/10/07 11:58:24;;;;;;;7.17;4.70;;;15.60;99.90;;;;;;5016481;28;20191;-79
2023/10/07 12:00:50;;;;;;;7.23;4.90;;;15.70;99.90;;;;;;5013783;28;20193;-79
2023/10/07 12:03:17;;;;;;;7.93;4.83;;;15.70;99.90;;;;;;5014789;28;20565;-79
2023/10/07 12:05:43;;;;;;;7.67;4.90;;;15.80;99.90;;;;;;5016195;28;20246;-80
2023/10/07 12:08:11;;;;;;;6.70;4.27;;;16.30;99.90;;;;;;5016444;28;20207;-80
2023/10/07 12:10:38;;;;;;;8.00;5.07;;;16.30;99.90;;;;;;5015987;28;20175;-79
2023/10/07 12:13:07;;;;;;;7.97;4.40;;;16.40;99.90;;;;;;5015489;28;20206;-79
2023/10/07 12:15:33;;;;;;;8.77;4.70;;;16.50;99.90;;;;;;5015998;28;20297;-79
2023/10/07 12:18:02;;;;;;;8.03;4.53;;;16.40;99.90;;;;;;5015396;28;20170;-79
2023/10/07 12:20:28;;;;;;;7.07;4.60;;;16.40;99.90;;;;;;5014006;28;20179;-79
2023/10/07 12:22:56;;;;;;;7.23;4.80;;;16.40;96.80;;;;;;5015455;28;20201;-79
2023/10/07 12:25:22;;;;;;;9.87;4.67;;;16.40;88.00;;;;;;5015044;28;20171;-79
2023/10/07 12:27:48;;;;;;;7.13;4.90;;;16.40;99.90;;;;;;5015453;28;20194;-79
2023/10/07 12:30:20;;;;;;;8.60;4.97;;;16.80;99.90;;;;;;5015448;28;20209;-80
2023/10/07 12:32:49;;;;;;;9.40;4.80;;;17.00;79.80;;;;;;5015107;28;20228;-79
2023/10/07 12:35:17;;;;;;;6.33;4.30;;;17.00;1.00;;;;;;5013637;28;20167;-79
2023/10/07 12:37:49;;;;;;;7.33;4.63;;;16.70;7.10;;;;;;5013836;28;20179;-79
2023/10/07 12:40:17;;;;;;;8.93;4.93;;;16.60;23.80;;;;;;5013990;28;20179;-80
2023/10/07 12:42:43;;;;;;;8.10;4.40;;;16.50;98.60;;;;;;5013371;28;20199;-80
2023/10/07 12:45:10;;;;;;;8.07;4.40;;;16.50;99.90;;;;;;5014748;28;20573;-80
2023/10/07 12:47:37;;;;;;;7.63;4.63;;;16.30;99.90;;;;;;5014958;28;20210;-80
2023/10/07 12:52:51;;;;;;;7.23;4.30;;;16.20;99.90;;;;;;5014882;28;20221;-80
2023/10/07 12:55:17;;;;;;;8.00;4.37;;;16.20;99.90;;;;;;5014589;28;20662;-80
2023/10/07 12:57:43;;;;;;;8.77;4.40;;;16.10;99.90;;;;;;5013275;28;20549;-80
2023/10/07 13:00:19;;;;;;;7.10;4.23;;;16.10;99.90;;;;;;5013326;28;20185;-79
2023/10/07 13:02:48;;;;;;;5.50;4.33;;;16.10;99.90;;;;;;5013679;28;20697;-80
2023/10/07 13:05:22;;;;;;;7.37;4.60;;;16.10;99.90;;;;;;5013609;28;20286;-79
2023/10/07 13:07:53;;;;;;;6.60;4.23;;;16.20;99.90;;;;;;5013149;28;20225;-79
2023/10/07 13:10:18;;;;;;;8.33;4.50;;;16.30;99.90;;;;;;5014587;28;20183;-80
2023/10/07 13:12:44;;;;;;;5.93;4.17;;;16.40;99.90;;;;;;5014052;28;20230;-78
2023/10/07 13:15:18;;;;;;;6.57;4.17;;;16.50;99.90;;;;;;5014836;28;20182;-79
2023/10/07 13:17:48;;;;;;;7.00;4.37;;;16.60;99.90;;;;;;5015084;28;20179;-79
2023/10/07 13:20:20;;;;;;;6.97;4.10;;;16.70;99.90;;;;;;5013368;28;20182;-80
2023/10/07 13:22:49;;;;;;;7.27;3.90;;;16.70;99.90;;;;;;5012956;28;20581;-79
2023/10/07 13:25:17;;;;;;;5.77;4.00;;;16.70;99.90;;;;;;5013890;28;20261;-79
2023/10/07 13:27:43;;;;;;;6.70;4.40;;;16.70;99.90;;;;;;5013050;28;20205;-80
2023/10/07 13:30:12;;;;;;;6.87;4.10;;;16.80;99.90;;;;;;5012877;28;20174;-79
2023/10/07 13:32:44;;;;;;;7.80;4.37;;;16.80;99.90;;;;;;5013914;28;20194;-79
2023/10/07 13:35:13;;;;;;;6.20;3.67;;;16.80;99.90;;;;;;5014819;28;20175;-79
2023/10/07 13:37:39;;;;;;;5.60;3.60;;;16.80;99.90;;;;;;5014649;28;20253;-79
2023/10/07 13:40:15;;;;;;;5.57;3.73;;;16.80;99.90;;;;;;5012928;28;20225;-79
2023/10/07 13:42:48;;;;;;;6.80;4.23;;;16.70;99.90;;;;;;5013411;28;20205;-79